sensor_id;sensor_type;location;lat;lon;timestamp;P1;durP1;ratioP1;P2;durP2;ratioP2
56171;SDS011;42052;41.634;-0.946;2023-12-20T00:01:35;1.55;;;1.20;;
56171;SDS011;42052;41.634;-0.946;2023-12-20T00:04:01;2.50;;;1.20;;
56171;SDS011;42052;41.634;-0.946;2023-12-20T00:06:28;1.48;;;1.23;;
56171;SDS011;42052;41.634;-0.946;2023-12-20T00:08:55;2.13;;;1.20;;
56171;SDS011;42052;41.634;-0.946;2023-12-20T00:11:20;2.08;;;1.10;;
56171;SDS011;42052;41.634;-0.946;2023-12-20T00:13:46;1.90;;;1.35;;
56171;SDS011;42052;41.634;-0.946;2023-12-20T00:16:12;2.28;;;1.15;;
56171;SDS011;42052;41.634;-0.946;2023-12-20T00:18:38;1.88;;;1.08;;
56171;SDS011;42052;41.634;-0.946;2023-12-20T00:21:03;2.47;;;1.23;;
56171;SDS011;42052;41.634;-0.946;2023-12-20T00:23:29;1.33;;;1.00;;
56171;SDS011;42052;41.634;-0.946;2023-12-20T00:25:55;1.60;;;1.17;;
56171;SDS011;42052;41.634;-0.946;2023-12-20T00:28:21;1.83;;;1.10;;
56171;SDS011;42052;41.634;-0.946;2023-12-20T00:30:48;1.35;;;1.13;;
56171;SDS011;42052;41.634;-0.946;2023-12-20T00:33:13;2.08;;;1.20;;
56171;SDS011;42052;41.634;-0.946;2023-12-20T00:35:39;1.50;;;1.10;;
56171;SDS011;42052;41.634;-0.946;2023-12-20T00:38:05;1.65;;;1.20;;
56171;SDS011;42052;41.634;-0.946;2023-12-20T00:40:32;3.78;;;1.35;;
56171;SDS011;42052;41.634;-0.946;2023-12-20T00:42:58;2.10;;;1.15;;
56171;SDS011;42052;41.634;-0.946;2023-12-20T00:45:24;2.30;;;1.17;;
56171;SDS011;42052;41.634;-0.946;2023-12-20T00:47:50;1.65;;;1.17;;
56171;SDS011;42052;41.634;-0.946;2023-12-20T00:50:15;1.35;;;1.15;;
56171;SDS011;42052;41.634;-0.946;2023-12-20T00:52:41;1.52;;;1.02;;
56171;SDS011;42052;41.634;-0.946;2023-12-20T00:55:07;1.40;;;1.00;;
56171;SDS011;42052;41.634;-0.946;2023-12-20T00:57:33;1.73;;;1.05;;
56171;SDS011;42052;41.634;-0.946;2023-12-20T00:59:59;1.48;;;0.90;;
56171;SDS011;42052;41.634;-0.946;2023-12-20T01:02:25;1.90;;;1.02;;
56171;SDS011;42052;41.634;-0.946;2023-12-20T01:04:50;2.33;;;1.00;;
56171;SDS011;42052;41.634;-0.946;2023-12-20T01:07:16;2.08;;;1.30;;
56171;SDS011;42052;41.634;-0.946;2023-12-20T01:09:42;1.52;;;1.08;;
56171;SDS011;42052;41.634;-0.946;2023-12-20T01:12:08;1.95;;;1.10;;
56171;SDS011;42052;41.634;-0.946;2023-12-20T01:14:34;1.77;;;1.00;;
56171;SDS011;42052;41.634;-0.946;2023-12-20T01:16:59;1.10;;;0.90;;
56171;SDS011;42052;41.634;-0.946;2023-12-20T01:19:27;1.52;;;1.00;;
56171;SDS011;42052;41.634;-0.946;2023-12-20T01:21:53;1.52;;;0.80;;
56171;SDS011;42052;41.634;-0.946;2023-12-20T01:24:19;1.77;;;1.02;;
56171;SDS011;42052;41.634;-0.946;2023-12-20T01:26:45;2.05;;;1.05;;
56171;SDS011;42052;41.634;-0.946;2023-12-20T01:29:10;1.55;;;1.00;;
56171;SDS011;42052;41.634;-0.946;2023-12-20T01:31:37;1.25;;;0.93;;
56171;SDS011;42052;41.634;-0.946;2023-12-20T01:34:03;1.20;;;1.00;;
56171;SDS011;42052;41.634;-0.946;2023-12-20T01:36:28;1.40;;;0.90;;
56171;SDS011;42052;41.634;-0.946;2023-12-20T01:38:54;1.50;;;0.90;;
56171;SDS011;42052;41.634;-0.946;2023-12-20T01:41:20;1.67;;;0.98;;
56171;SDS011;42052;41.634;-0.946;2023-12-20T01:43:46;1.65;;;1.00;;
56171;SDS011;42052;41.634;-0.946;2023-12-20T01:46:11;1.83;;;0.95;;
56171;SDS011;42052;41.634;-0.946;2023-12-20T01:48:37;1.58;;;0.90;;
56171;SDS011;42052;41.634;-0.946;2023-12-20T01:51:03;1.00;;;0.90;;
56171;SDS011;42052;41.634;-0.946;2023-12-20T01:53:30;1.35;;;1.00;;
56171;SDS011;42052;41.634;-0.946;2023-12-20T01:55:57;1.48;;;0.90;;
56171;SDS011;42052;41.634;-0.946;2023-12-20T01:58:24;0.82;;;0.75;;
56171;SDS011;42052;41.634;-0.946;2023-12-20T02:00:51;2.25;;;1.00;;
56171;SDS011;42052;41.634;-0.946;2023-12-20T02:03:17;1.10;;;0.90;;
56171;SDS011;42052;41.634;-0.946;2023-12-20T02:05:44;1.30;;;0.90;;
56171;SDS011;42052;41.634;-0.946;2023-12-20T02:08:10;1.48;;;0.80;;
56171;SDS011;42052;41.634;-0.946;2023-12-20T02:10:36;3.08;;;1.00;;
56171;SDS011;42052;41.634;-0.946;2023-12-20T02:13:03;1.38;;;0.90;;
56171;SDS011;42052;41.634;-0.946;2023-12-20T02:15:29;2.13;;;1.05;;
56171;SDS011;42052;41.634;-0.946;2023-12-20T02:17:55;0.98;;;0.88;;
56171;SDS011;42052;41.634;-0.946;2023-12-20T02:20:21;1.25;;;0.80;;
56171;SDS011;42052;41.634;-0.946;2023-12-20T02:22:47;1.50;;;0.88;;
56171;SDS011;42052;41.634;-0.946;2023-12-20T02:25:13;2.15;;;1.10;;
56171;SDS011;42052;41.634;-0.946;2023-12-20T02:27:39;1.40;;;1.02;;
56171;SDS011;42052;41.634;-0.946;2023-12-20T02:30:05;1.15;;;0.80;;
56171;SDS011;42052;41.634;-0.946;2023-12-20T02:32:31;2.45;;;0.93;;
56171;SDS011;42052;41.634;-0.946;2023-12-20T02:34:57;1.25;;;0.80;;
56171;SDS011;42052;41.634;-0.946;2023-12-20T02:37:23;0.93;;;0.65;;
56171;SDS011;42052;41.634;-0.946;2023-12-20T02:39:49;1.52;;;0.88;;
56171;SDS011;42052;41.634;-0.946;2023-12-20T02:42:15;2.47;;;1.08;;
56171;SDS011;42052;41.634;-0.946;2023-12-20T02:44:41;1.52;;;0.70;;
56171;SDS011;42052;41.634;-0.946;2023-12-20T02:47:06;1.67;;;0.90;;
56171;SDS011;42052;41.634;-0.946;2023-12-20T02:49:32;1.15;;;0.73;;
56171;SDS011;42052;41.634;-0.946;2023-12-20T02:51:58;4.10;;;0.90;;
56171;SDS011;42052;41.634;-0.946;2023-12-20T02:54:24;1.30;;;0.90;;
56171;SDS011;42052;41.634;-0.946;2023-12-20T02:56:50;4.35;;;0.90;;
56171;SDS011;42052;41.634;-0.946;2023-12-20T02:59:15;1.70;;;0.90;;
56171;SDS011;42052;41.634;-0.946;2023-12-20T03:01:42;2.75;;;0.90;;
56171;SDS011;42052;41.634;-0.946;2023-12-20T03:04:09;1.70;;;0.88;;
56171;SDS011;42052;41.634;-0.946;2023-12-20T03:06:35;1.45;;;0.80;;
56171;SDS011;42052;41.634;-0.946;2023-12-20T03:09:01;1.95;;;0.70;;
56171;SDS011;42052;41.634;-0.946;2023-12-20T03:11:27;2.33;;;1.00;;
56171;SDS011;42052;41.634;-0.946;2023-12-20T03:13:53;0.80;;;0.57;;
56171;SDS011;42052;41.634;-0.946;2023-12-20T03:16:20;1.15;;;0.70;;
56171;SDS011;42052;41.634;-0.946;2023-12-20T03:18:45;3.30;;;1.00;;
56171;SDS011;42052;41.634;-0.946;2023-12-20T03:21:11;1.25;;;0.80;;
56171;SDS011;42052;41.634;-0.946;2023-12-20T03:23:37;1.58;;;0.80;;
56171;SDS011;42052;41.634;-0.946;2023-12-20T03:26:03;1.00;;;0.80;;
56171;SDS011;42052;41.634;-0.946;2023-12-20T03:28:31;1.98;;;0.90;;
56171;SDS011;42052;41.634;-0.946;2023-12-20T03:30:57;0.98;;;0.70;;
56171;SDS011;42052;41.634;-0.946;2023-12-20T03:33:23;1.23;;;0.90;;
56171;SDS011;42052;41.634;-0.946;2023-12-20T03:35:48;1.38;;;0.80;;
56171;SDS011;42052;41.634;-0.946;2023-12-20T03:38:14;1.48;;;0.75;;
56171;SDS011;42052;41.634;-0.946;2023-12-20T03:40:40;0.68;;;0.60;;
56171;SDS011;42052;41.634;-0.946;2023-12-20T03:43:06;2.85;;;0.70;;
56171;SDS011;42052;41.634;-0.946;2023-12-20T03:45:31;2.75;;;1.02;;
56171;SDS011;42052;41.634;-0.946;2023-12-20T03:47:58;0.98;;;0.70;;
56171;SDS011;42052;41.634;-0.946;2023-12-20T03:50:24;0.95;;;0.82;;
56171;SDS011;42052;41.634;-0.946;2023-12-20T03:52:51;1.25;;;0.75;;
56171;SDS011;42052;41.634;-0.946;2023-12-20T03:55:17;1.45;;;0.82;;
56171;SDS011;42052;41.634;-0.946;2023-12-20T03:57:43;1.63;;;0.85;;
56171;SDS011;42052;41.634;-0.946;2023-12-20T04:00:09;1.10;;;0.60;;
56171;SDS011;42052;41.634;-0.946;2023-12-20T04:02:42;1.17;;;0.75;;
56171;SDS011;42052;41.634;-0.946;2023-12-20T04:05:08;1.08;;;0.75;;
56171;SDS011;42052;41.634;-0.946;2023-12-20T04:07:35;1.00;;;0.60;;
56171;SDS011;42052;41.634;-0.946;2023-12-20T04:10:01;1.40;;;0.93;;
56171;SDS011;42052;41.634;-0.946;2023-12-20T04:12:28;1.65;;;0.68;;
56171;SDS011;42052;41.634;-0.946;2023-12-20T04:14:55;1.73;;;0.80;;
56171;SDS011;42052;41.634;-0.946;2023-12-20T04:17:21;1.45;;;0.80;;
56171;SDS011;42052;41.634;-0.946;2023-12-20T04:19:49;1.42;;;0.60;;
56171;SDS011;42052;41.634;-0.946;2023-12-20T04:22:16;1.00;;;0.73;;
56171;SDS011;42052;41.634;-0.946;2023-12-20T04:24:43;1.40;;;0.90;;
56171;SDS011;42052;41.634;-0.946;2023-12-20T04:27:09;1.58;;;0.80;;
56171;SDS011;42052;41.634;-0.946;2023-12-20T04:29:35;1.30;;;0.68;;
56171;SDS011;42052;41.634;-0.946;2023-12-20T04:32:01;2.55;;;0.70;;
56171;SDS011;42052;41.634;-0.946;2023-12-20T04:34:26;1.40;;;0.80;;
56171;SDS011;42052;41.634;-0.946;2023-12-20T04:36:52;3.85;;;0.90;;
56171;SDS011;42052;41.634;-0.946;2023-12-20T04:39:18;2.50;;;0.82;;
56171;SDS011;42052;41.634;-0.946;2023-12-20T04:41:44;2.25;;;0.70;;
56171;SDS011;42052;41.634;-0.946;2023-12-20T04:44:12;2.53;;;0.80;;
56171;SDS011;42052;41.634;-0.946;2023-12-20T04:46:38;0.80;;;0.68;;
56171;SDS011;42052;41.634;-0.946;2023-12-20T04:49:04;1.40;;;0.80;;
56171;SDS011;42052;41.634;-0.946;2023-12-20T04:51:32;1.30;;;0.80;;
56171;SDS011;42052;41.634;-0.946;2023-12-20T04:53:59;0.95;;;0.65;;
56171;SDS011;42052;41.634;-0.946;2023-12-20T04:56:24;1.15;;;0.77;;
56171;SDS011;42052;41.634;-0.946;2023-12-20T04:58:50;1.65;;;0.70;;
56171;SDS011;42052;41.634;-0.946;2023-12-20T05:01:16;1.52;;;0.70;;
56171;SDS011;42052;41.634;-0.946;2023-12-20T05:03:42;0.90;;;0.60;;
56171;SDS011;42052;41.634;-0.946;2023-12-20T05:06:08;1.30;;;0.77;;
56171;SDS011;42052;41.634;-0.946;2023-12-20T05:08:34;1.75;;;0.68;;
56171;SDS011;42052;41.634;-0.946;2023-12-20T05:11:00;1.45;;;0.70;;
56171;SDS011;42052;41.634;-0.946;2023-12-20T05:13:26;2.47;;;0.60;;
56171;SDS011;42052;41.634;-0.946;2023-12-20T05:15:51;0.95;;;0.60;;
56171;SDS011;42052;41.634;-0.946;2023-12-20T05:18:17;1.67;;;0.80;;
56171;SDS011;42052;41.634;-0.946;2023-12-20T05:20:43;1.63;;;0.70;;
56171;SDS011;42052;41.634;-0.946;2023-12-20T05:23:09;0.90;;;0.60;;
56171;SDS011;42052;41.634;-0.946;2023-12-20T05:25:35;0.95;;;0.60;;
56171;SDS011;42052;41.634;-0.946;2023-12-20T05:28:00;1.23;;;0.70;;
56171;SDS011;42052;41.634;-0.946;2023-12-20T05:30:26;1.02;;;0.60;;
56171;SDS011;42052;41.634;-0.946;2023-12-20T05:32:52;1.10;;;0.60;;
56171;SDS011;42052;41.634;-0.946;2023-12-20T05:35:18;1.60;;;0.70;;
56171;SDS011;42052;41.634;-0.946;2023-12-20T05:37:44;1.58;;;0.70;;
56171;SDS011;42052;41.634;-0.946;2023-12-20T05:40:10;0.95;;;0.57;;
56171;SDS011;42052;41.634;-0.946;2023-12-20T05:42:36;0.88;;;0.50;;
56171;SDS011;42052;41.634;-0.946;2023-12-20T05:45:05;1.35;;;0.70;;
56171;SDS011;42052;41.634;-0.946;2023-12-20T05:47:31;2.92;;;0.80;;
56171;SDS011;42052;41.634;-0.946;2023-12-20T05:49:57;1.45;;;0.60;;
56171;SDS011;42052;41.634;-0.946;2023-12-20T05:52:23;1.05;;;0.50;;
56171;SDS011;42052;41.634;-0.946;2023-12-20T05:54:49;1.48;;;0.60;;
56171;SDS011;42052;41.634;-0.946;2023-12-20T05:57:15;2.60;;;0.60;;
56171;SDS011;42052;41.634;-0.946;2023-12-20T05:59:41;0.82;;;0.50;;
56171;SDS011;42052;41.634;-0.946;2023-12-20T06:02:07;1.52;;;0.50;;
56171;SDS011;42052;41.634;-0.946;2023-12-20T06:04:32;1.25;;;0.70;;
56171;SDS011;42052;41.634;-0.946;2023-12-20T06:06:58;1.98;;;0.50;;
56171;SDS011;42052;41.634;-0.946;2023-12-20T06:09:25;1.77;;;0.75;;
56171;SDS011;42052;41.634;-0.946;2023-12-20T06:11:53;1.38;;;0.77;;
56171;SDS011;42052;41.634;-0.946;2023-12-20T06:14:19;1.38;;;0.70;;
56171;SDS011;42052;41.634;-0.946;2023-12-20T06:16:45;0.90;;;0.60;;
56171;SDS011;42052;41.634;-0.946;2023-12-20T06:19:11;0.80;;;0.57;;
56171;SDS011;42052;41.634;-0.946;2023-12-20T06:21:37;2.42;;;0.68;;
56171;SDS011;42052;41.634;-0.946;2023-12-20T06:24:03;1.27;;;0.70;;
56171;SDS011;42052;41.634;-0.946;2023-12-20T06:26:29;0.93;;;0.60;;
56171;SDS011;42052;41.634;-0.946;2023-12-20T06:28:54;1.27;;;0.80;;
56171;SDS011;42052;41.634;-0.946;2023-12-20T06:31:20;1.30;;;0.80;;
56171;SDS011;42052;41.634;-0.946;2023-12-20T06:33:46;3.78;;;0.80;;
56171;SDS011;42052;41.634;-0.946;2023-12-20T06:36:13;0.90;;;0.70;;
56171;SDS011;42052;41.634;-0.946;2023-12-20T06:38:39;2.42;;;0.70;;
56171;SDS011;42052;41.634;-0.946;2023-12-20T06:41:05;1.23;;;0.70;;
56171;SDS011;42052;41.634;-0.946;2023-12-20T06:43:31;2.35;;;0.70;;
56171;SDS011;42052;41.634;-0.946;2023-12-20T06:45:59;2.67;;;0.73;;
56171;SDS011;42052;41.634;-0.946;2023-12-20T06:48:25;4.47;;;0.90;;
56171;SDS011;42052;41.634;-0.946;2023-12-20T06:50:51;3.00;;;0.80;;
56171;SDS011;42052;41.634;-0.946;2023-12-20T06:53:17;2.13;;;0.60;;
56171;SDS011;42052;41.634;-0.946;2023-12-20T06:55:43;3.10;;;0.77;;
56171;SDS011;42052;41.634;-0.946;2023-12-20T06:58:09;2.30;;;0.70;;
56171;SDS011;42052;41.634;-0.946;2023-12-20T07:00:35;2.00;;;0.80;;
56171;SDS011;42052;41.634;-0.946;2023-12-20T07:03:00;1.58;;;0.70;;
56171;SDS011;42052;41.634;-0.946;2023-12-20T07:05:26;1.35;;;0.73;;
56171;SDS011;42052;41.634;-0.946;2023-12-20T07:07:52;2.65;;;0.90;;
56171;SDS011;42052;41.634;-0.946;2023-12-20T07:10:18;1.67;;;0.70;;
56171;SDS011;42052;41.634;-0.946;2023-12-20T07:12:44;2.40;;;0.70;;
56171;SDS011;42052;41.634;-0.946;2023-12-20T07:15:10;1.38;;;0.70;;
56171;SDS011;42052;41.634;-0.946;2023-12-20T07:17:36;1.52;;;0.70;;
56171;SDS011;42052;41.634;-0.946;2023-12-20T07:20:02;3.28;;;0.75;;
56171;SDS011;42052;41.634;-0.946;2023-12-20T07:22:31;2.00;;;0.80;;
56171;SDS011;42052;41.634;-0.946;2023-12-20T07:24:58;1.33;;;0.50;;
56171;SDS011;42052;41.634;-0.946;2023-12-20T07:27:25;2.20;;;0.70;;
56171;SDS011;42052;41.634;-0.946;2023-12-20T07:29:51;2.28;;;0.68;;
56171;SDS011;42052;41.634;-0.946;2023-12-20T07:32:17;2.30;;;0.65;;
56171;SDS011;42052;41.634;-0.946;2023-12-20T07:34:43;0.82;;;0.70;;
56171;SDS011;42052;41.634;-0.946;2023-12-20T07:37:08;2.00;;;0.70;;
56171;SDS011;42052;41.634;-0.946;2023-12-20T07:39:37;1.38;;;0.70;;
56171;SDS011;42052;41.634;-0.946;2023-12-20T07:42:05;0.63;;;0.47;;
56171;SDS011;42052;41.634;-0.946;2023-12-20T07:44:31;1.33;;;0.60;;
56171;SDS011;42052;41.634;-0.946;2023-12-20T07:46:56;4.57;;;0.70;;
56171;SDS011;42052;41.634;-0.946;2023-12-20T07:49:23;0.77;;;0.52;;
56171;SDS011;42052;41.634;-0.946;2023-12-20T07:51:49;1.05;;;0.50;;
56171;SDS011;42052;41.634;-0.946;2023-12-20T07:54:15;1.85;;;0.60;;
56171;SDS011;42052;41.634;-0.946;2023-12-20T07:56:41;0.98;;;0.60;;
56171;SDS011;42052;41.634;-0.946;2023-12-20T07:59:07;0.68;;;0.60;;
56171;SDS011;42052;41.634;-0.946;2023-12-20T08:01:33;1.33;;;0.60;;
56171;SDS011;42052;41.634;-0.946;2023-12-20T08:03:59;1.10;;;0.50;;
56171;SDS011;42052;41.634;-0.946;2023-12-20T08:06:25;1.67;;;0.80;;
56171;SDS011;42052;41.634;-0.946;2023-12-20T08:08:50;0.80;;;0.60;;
56171;SDS011;42052;41.634;-0.946;2023-12-20T08:11:16;0.98;;;0.50;;
56171;SDS011;42052;41.634;-0.946;2023-12-20T08:13:42;1.48;;;0.63;;
56171;SDS011;42052;41.634;-0.946;2023-12-20T08:16:08;2.20;;;0.50;;
56171;SDS011;42052;41.634;-0.946;2023-12-20T08:18:34;1.00;;;0.50;;
56171;SDS011;42052;41.634;-0.946;2023-12-20T08:21:00;1.63;;;0.50;;
56171;SDS011;42052;41.634;-0.946;2023-12-20T08:23:26;1.38;;;0.60;;
56171;SDS011;42052;41.634;-0.946;2023-12-20T08:25:52;1.52;;;0.50;;
56171;SDS011;42052;41.634;-0.946;2023-12-20T08:28:18;0.88;;;0.60;;
56171;SDS011;42052;41.634;-0.946;2023-12-20T08:30:44;1.08;;;0.52;;
56171;SDS011;42052;41.634;-0.946;2023-12-20T08:33:09;2.15;;;0.50;;
56171;SDS011;42052;41.634;-0.946;2023-12-20T08:35:38;2.13;;;0.50;;
56171;SDS011;42052;41.634;-0.946;2023-12-20T08:38:05;1.08;;;0.40;;
56171;SDS011;42052;41.634;-0.946;2023-12-20T08:40:31;1.98;;;0.50;;
56171;SDS011;42052;41.634;-0.946;2023-12-20T08:42:57;1.00;;;0.50;;
56171;SDS011;42052;41.634;-0.946;2023-12-20T08:45:23;0.93;;;0.50;;
56171;SDS011;42052;41.634;-0.946;2023-12-20T08:47:49;1.45;;;0.50;;
56171;SDS011;42052;41.634;-0.946;2023-12-20T08:50:15;0.82;;;0.50;;
56171;SDS011;42052;41.634;-0.946;2023-12-20T08:52:41;1.15;;;0.50;;
56171;SDS011;42052;41.634;-0.946;2023-12-20T08:55:07;1.65;;;0.40;;
56171;SDS011;42052;41.634;-0.946;2023-12-20T08:57:35;0.55;;;0.40;;
56171;SDS011;42052;41.634;-0.946;2023-12-20T09:00:01;0.90;;;0.50;;
56171;SDS011;42052;41.634;-0.946;2023-12-20T09:02:28;1.80;;;0.40;;
56171;SDS011;42052;41.634;-0.946;2023-12-20T09:04:54;2.42;;;0.47;;
56171;SDS011;42052;41.634;-0.946;2023-12-20T09:07:21;1.35;;;0.45;;
56171;SDS011;42052;41.634;-0.946;2023-12-20T09:09:50;0.88;;;0.50;;
56171;SDS011;42052;41.634;-0.946;2023-12-20T09:12:17;0.68;;;0.40;;
56171;SDS011;42052;41.634;-0.946;2023-12-20T09:14:44;1.23;;;0.50;;
56171;SDS011;42052;41.634;-0.946;2023-12-20T09:17:14;1.05;;;0.40;;
56171;SDS011;42052;41.634;-0.946;2023-12-20T09:19:41;1.85;;;0.40;;
56171;SDS011;42052;41.634;-0.946;2023-12-20T09:22:09;0.40;;;0.40;;
56171;SDS011;42052;41.634;-0.946;2023-12-20T09:24:34;0.90;;;0.47;;
56171;SDS011;42052;41.634;-0.946;2023-12-20T09:27:00;0.93;;;0.50;;
56171;SDS011;42052;41.634;-0.946;2023-12-20T09:29:26;1.17;;;0.57;;
56171;SDS011;42052;41.634;-0.946;2023-12-20T09:31:52;1.30;;;0.40;;
56171;SDS011;42052;41.634;-0.946;2023-12-20T09:34:18;0.50;;;0.40;;
56171;SDS011;42052;41.634;-0.946;2023-12-20T09:36:44;0.68;;;0.40;;
56171;SDS011;42052;41.634;-0.946;2023-12-20T09:39:16;2.83;;;0.40;;
56171;SDS011;42052;41.634;-0.946;2023-12-20T09:41:49;1.45;;;0.43;;
56171;SDS011;42052;41.634;-0.946;2023-12-20T09:44:28;1.27;;;0.38;;
56171;SDS011;42052;41.634;-0.946;2023-12-20T09:46:55;0.40;;;0.40;;
56171;SDS011;42052;41.634;-0.946;2023-12-20T09:49:21;1.13;;;0.50;;
56171;SDS011;42052;41.634;-0.946;2023-12-20T09:51:48;0.60;;;0.38;;
56171;SDS011;42052;41.634;-0.946;2023-12-20T09:54:19;0.52;;;0.40;;
56171;SDS011;42052;41.634;-0.946;2023-12-20T09:56:46;1.58;;;0.35;;
56171;SDS011;42052;41.634;-0.946;2023-12-20T09:59:13;1.25;;;0.40;;
56171;SDS011;42052;41.634;-0.946;2023-12-20T10:01:40;0.47;;;0.30;;
56171;SDS011;42052;41.634;-0.946;2023-12-20T10:04:06;0.63;;;0.32;;
56171;SDS011;42052;41.634;-0.946;2023-12-20T10:06:37;0.35;;;0.30;;
56171;SDS011;42052;41.634;-0.946;2023-12-20T10:09:04;1.90;;;0.32;;
56171;SDS011;42052;41.634;-0.946;2023-12-20T10:11:31;2.20;;;0.40;;
56171;SDS011;42052;41.634;-0.946;2023-12-20T10:14:00;0.85;;;0.35;;
56171;SDS011;42052;41.634;-0.946;2023-12-20T10:16:26;1.02;;;0.40;;
56171;SDS011;42052;41.634;-0.946;2023-12-20T10:18:56;0.50;;;0.30;;
56171;SDS011;42052;41.634;-0.946;2023-12-20T10:21:22;2.67;;;0.40;;
56171;SDS011;42052;41.634;-0.946;2023-12-20T10:23:49;0.70;;;0.43;;
56171;SDS011;42052;41.634;-0.946;2023-12-20T10:26:21;1.05;;;0.35;;
56171;SDS011;42052;41.634;-0.946;2023-12-20T10:28:56;0.68;;;0.30;;
56171;SDS011;42052;41.634;-0.946;2023-12-20T10:33:58;1.08;;;0.30;;
56171;SDS011;42052;41.634;-0.946;2023-12-20T10:36:29;1.05;;;0.30;;
56171;SDS011;42052;41.634;-0.946;2023-12-20T10:38:56;0.93;;;0.38;;
56171;SDS011;42052;41.634;-0.946;2023-12-20T10:41:26;0.30;;;0.20;;
56171;SDS011;42052;41.634;-0.946;2023-12-20T10:43:55;3.58;;;0.30;;
56171;SDS011;42052;41.634;-0.946;2023-12-20T10:46:26;0.47;;;0.40;;
56171;SDS011;42052;41.634;-0.946;2023-12-20T10:48:53;4.78;;;0.40;;
56171;SDS011;42052;41.634;-0.946;2023-12-20T10:51:20;0.90;;;0.40;;
56171;SDS011;42052;41.634;-0.946;2023-12-20T10:53:47;0.40;;;0.30;;
56171;SDS011;42052;41.634;-0.946;2023-12-20T10:56:15;0.80;;;0.40;;
56171;SDS011;42052;41.634;-0.946;2023-12-20T10:58:49;1.45;;;0.32;;
56171;SDS011;42052;41.634;-0.946;2023-12-20T11:01:16;0.65;;;0.30;;
56171;SDS011;42052;41.634;-0.946;2023-12-20T11:03:53;2.95;;;0.50;;
56171;SDS011;42052;41.634;-0.946;2023-12-20T11:09:07;0.88;;;0.43;;
56171;SDS011;42052;41.634;-0.946;2023-12-20T11:14:40;0.88;;;0.57;;
56171;SDS011;42052;41.634;-0.946;2023-12-20T11:17:18;0.50;;;0.30;;
56171;SDS011;42052;41.634;-0.946;2023-12-20T11:22:26;1.92;;;0.43;;
56171;SDS011;42052;41.634;-0.946;2023-12-20T11:24:58;0.40;;;0.20;;
56171;SDS011;42052;41.634;-0.946;2023-12-20T11:27:35;1.77;;;0.40;;
56171;SDS011;42052;41.634;-0.946;2023-12-20T11:30:04;1.85;;;0.40;;
56171;SDS011;42052;41.634;-0.946;2023-12-20T11:32:35;1.40;;;0.38;;
56171;SDS011;42052;41.634;-0.946;2023-12-20T11:37:37;0.93;;;0.40;;
56171;SDS011;42052;41.634;-0.946;2023-12-20T11:40:08;1.10;;;0.38;;
56171;SDS011;42052;41.634;-0.946;2023-12-20T11:42:41;1.58;;;0.40;;
56171;SDS011;42052;41.634;-0.946;2023-12-20T11:45:08;1.90;;;0.50;;
56171;SDS011;42052;41.634;-0.946;2023-12-20T11:47:35;0.90;;;0.30;;
56171;SDS011;42052;41.634;-0.946;2023-12-20T11:50:01;1.00;;;0.30;;
56171;SDS011;42052;41.634;-0.946;2023-12-20T11:52:29;1.05;;;0.40;;
56171;SDS011;42052;41.634;-0.946;2023-12-20T11:54:55;1.20;;;0.40;;
56171;SDS011;42052;41.634;-0.946;2023-12-20T11:57:22;0.63;;;0.30;;
56171;SDS011;42052;41.634;-0.946;2023-12-20T11:59:48;1.77;;;0.40;;
56171;SDS011;42052;41.634;-0.946;2023-12-20T12:02:14;2.20;;;0.40;;
56171;SDS011;42052;41.634;-0.946;2023-12-20T12:04:43;1.30;;;0.50;;
56171;SDS011;42052;41.634;-0.946;2023-12-20T12:07:09;1.38;;;0.40;;
56171;SDS011;42052;41.634;-0.946;2023-12-20T12:09:35;1.52;;;0.40;;
56171;SDS011;42052;41.634;-0.946;2023-12-20T12:12:01;2.05;;;0.35;;
56171;SDS011;42052;41.634;-0.946;2023-12-20T12:14:27;0.98;;;0.30;;
56171;SDS011;42052;41.634;-0.946;2023-12-20T12:16:53;1.52;;;0.30;;
56171;SDS011;42052;41.634;-0.946;2023-12-20T12:19:20;2.40;;;0.50;;
56171;SDS011;42052;41.634;-0.946;2023-12-20T12:21:49;1.40;;;0.50;;
56171;SDS011;42052;41.634;-0.946;2023-12-20T12:24:19;3.83;;;0.40;;
56171;SDS011;42052;41.634;-0.946;2023-12-20T12:26:50;2.50;;;0.43;;
56171;SDS011;42052;41.634;-0.946;2023-12-20T12:29:17;24.50;;;1.60;;
56171;SDS011;42052;41.634;-0.946;2023-12-20T12:31:43;16.70;;;1.58;;
56171;SDS011;42052;41.634;-0.946;2023-12-20T12:34:09;17.35;;;1.10;;
56171;SDS011;42052;41.634;-0.946;2023-12-20T12:36:35;12.02;;;1.02;;
56171;SDS011;42052;41.634;-0.946;2023-12-20T12:39:03;5.45;;;1.00;;
56171;SDS011;42052;41.634;-0.946;2023-12-20T12:41:30;15.55;;;1.30;;
56171;SDS011;42052;41.634;-0.946;2023-12-20T12:43:56;9.70;;;0.88;;
56171;SDS011;42052;41.634;-0.946;2023-12-20T12:46:22;10.15;;;1.00;;
56171;SDS011;42052;41.634;-0.946;2023-12-20T12:48:47;8.40;;;0.80;;
56171;SDS011;42052;41.634;-0.946;2023-12-20T12:51:15;7.18;;;1.00;;
56171;SDS011;42052;41.634;-0.946;2023-12-20T12:53:41;8.00;;;0.80;;
56171;SDS011;42052;41.634;-0.946;2023-12-20T12:56:07;6.57;;;0.90;;
56171;SDS011;42052;41.634;-0.946;2023-12-20T12:58:33;4.85;;;0.70;;
56171;SDS011;42052;41.634;-0.946;2023-12-20T13:00:59;8.00;;;0.90;;
56171;SDS011;42052;41.634;-0.946;2023-12-20T13:03:25;3.50;;;0.90;;
56171;SDS011;42052;41.634;-0.946;2023-12-20T13:05:50;6.15;;;1.10;;
56171;SDS011;42052;41.634;-0.946;2023-12-20T13:08:16;7.57;;;0.90;;
56171;SDS011;42052;41.634;-0.946;2023-12-20T13:10:42;4.40;;;0.70;;
56171;SDS011;42052;41.634;-0.946;2023-12-20T13:13:08;7.30;;;0.82;;
56171;SDS011;42052;41.634;-0.946;2023-12-20T13:15:34;6.22;;;0.82;;
56171;SDS011;42052;41.634;-0.946;2023-12-20T13:18:00;4.95;;;0.60;;
56171;SDS011;42052;41.634;-0.946;2023-12-20T13:20:26;4.00;;;0.70;;
56171;SDS011;42052;41.634;-0.946;2023-12-20T13:22:52;5.97;;;0.70;;
56171;SDS011;42052;41.634;-0.946;2023-12-20T13:25:17;5.25;;;0.75;;
56171;SDS011;42052;41.634;-0.946;2023-12-20T13:27:43;4.93;;;0.70;;
56171;SDS011;42052;41.634;-0.946;2023-12-20T13:30:09;3.42;;;0.82;;
56171;SDS011;42052;41.634;-0.946;2023-12-20T13:32:35;5.00;;;0.80;;
56171;SDS011;42052;41.634;-0.946;2023-12-20T13:35:01;4.80;;;0.70;;
56171;SDS011;42052;41.634;-0.946;2023-12-20T13:37:27;3.72;;;0.70;;
56171;SDS011;42052;41.634;-0.946;2023-12-20T13:39:52;5.40;;;0.85;;
56171;SDS011;42052;41.634;-0.946;2023-12-20T13:42:18;3.92;;;0.80;;
56171;SDS011;42052;41.634;-0.946;2023-12-20T13:44:45;2.72;;;0.80;;
56171;SDS011;42052;41.634;-0.946;2023-12-20T13:47:12;1.30;;;0.55;;
56171;SDS011;42052;41.634;-0.946;2023-12-20T13:49:37;4.93;;;0.60;;
56171;SDS011;42052;41.634;-0.946;2023-12-20T13:52:03;5.05;;;0.70;;
56171;SDS011;42052;41.634;-0.946;2023-12-20T13:54:29;3.42;;;0.90;;
56171;SDS011;42052;41.634;-0.946;2023-12-20T13:56:55;3.72;;;0.90;;
56171;SDS011;42052;41.634;-0.946;2023-12-20T13:59:22;5.13;;;0.88;;
56171;SDS011;42052;41.634;-0.946;2023-12-20T14:01:48;4.03;;;0.63;;
56171;SDS011;42052;41.634;-0.946;2023-12-20T14:04:15;6.82;;;0.80;;
56171;SDS011;42052;41.634;-0.946;2023-12-20T14:06:41;4.82;;;0.80;;
56171;SDS011;42052;41.634;-0.946;2023-12-20T14:09:07;4.85;;;0.75;;
56171;SDS011;42052;41.634;-0.946;2023-12-20T14:11:33;4.63;;;0.70;;
56171;SDS011;42052;41.634;-0.946;2023-12-20T14:13:59;4.65;;;0.80;;
56171;SDS011;42052;41.634;-0.946;2023-12-20T14:16:26;4.35;;;0.68;;
56171;SDS011;42052;41.634;-0.946;2023-12-20T14:18:52;2.05;;;0.70;;
56171;SDS011;42052;41.634;-0.946;2023-12-20T14:21:22;2.47;;;0.70;;
56171;SDS011;42052;41.634;-0.946;2023-12-20T14:23:49;3.83;;;0.65;;
56171;SDS011;42052;41.634;-0.946;2023-12-20T14:26:14;1.55;;;0.63;;
56171;SDS011;42052;41.634;-0.946;2023-12-20T14:28:41;2.65;;;0.60;;
56171;SDS011;42052;41.634;-0.946;2023-12-20T14:31:07;2.67;;;0.63;;
56171;SDS011;42052;41.634;-0.946;2023-12-20T14:33:35;3.15;;;0.68;;
56171;SDS011;42052;41.634;-0.946;2023-12-20T14:36:06;3.33;;;0.70;;
56171;SDS011;42052;41.634;-0.946;2023-12-20T14:38:32;2.80;;;0.57;;
56171;SDS011;42052;41.634;-0.946;2023-12-20T14:40:58;1.13;;;0.60;;
56171;SDS011;42052;41.634;-0.946;2023-12-20T14:43:24;2.88;;;0.65;;